VOZ1413 YSSY-YBCS
Flight info
| Callsign | VOZ1413 |
|---|---|
| Flight time | 2h 54m |
| Altitude | 38000 |
| Route | TESAT H530 LASUD Q293 AKUMI Q147 VOMPA Q499 NONUM J64 CS |
| Aircraft | B738/M-SDE2E3FGHIRWXY/LB1 |
Departure
| Time | 2026-05-08 20:51 |
|---|---|
| Airport | Sydney Kingsford Smith International Airport (YSSY) |
Arrival
| Time | 2026-05-08 23:46 |
|---|---|
| Airport | Cairns International Airport (YBCS) |
| Time | Latitude | Longitude | Altitude | Speed | Heading |
|---|---|---|---|---|---|
| 2026-05-08 20:22 | -33.93523 | 151.17920 | 29 ft | 0 kts | 100° |
| 2026-05-08 20:35 | -33.93523 | 151.17917 | 29 ft | 2 kts | 99° |
| 2026-05-08 20:36 | -33.93519 | 151.17886 | 29 ft | 4 kts | 99° |
| 2026-05-08 20:36 | -33.93512 | 151.17856 | 29 ft | 4 kts | 122° |
| 2026-05-08 20:36 | -33.93499 | 151.17844 | 29 ft | 2 kts | 190° |
| 2026-05-08 20:36 | -33.93520 | 151.17839 | 29 ft | 4 kts | 190° |
| 2026-05-08 20:37 | -33.93547 | 151.17834 | 29 ft | 4 kts | 190° |
| 2026-05-08 20:37 | -33.93573 | 151.17828 | 29 ft | 4 kts | 190° |
| 2026-05-08 20:37 | -33.93600 | 151.17823 | 29 ft | 4 kts | 190° |
| 2026-05-08 20:37 | -33.93607 | 151.17821 | 29 ft | 0 kts | 190° |
| 2026-05-08 20:39 | -33.93632 | 151.17816 | 29 ft | 7 kts | 191° |
| 2026-05-08 20:40 | -33.93687 | 151.17799 | 29 ft | 9 kts | 195° |
| 2026-05-08 20:40 | -33.93751 | 151.17780 | 29 ft | 9 kts | 194° |
| 2026-05-08 20:40 | -33.93814 | 151.17763 | 29 ft | 10 kts | 187° |
| 2026-05-08 20:40 | -33.93896 | 151.17777 | 29 ft | 14 kts | 167° |
| 2026-05-08 20:41 | -33.93990 | 151.17804 | 28 ft | 14 kts | 167° |
| 2026-05-08 20:41 | -33.94082 | 151.17827 | 28 ft | 14 kts | 168° |
| 2026-05-08 20:41 | -33.94176 | 151.17851 | 29 ft | 14 kts | 168° |
| 2026-05-08 20:41 | -33.94279 | 151.17877 | 29 ft | 16 kts | 167° |
| 2026-05-08 20:42 | -33.94388 | 151.17906 | 29 ft | 16 kts | 167° |
| 2026-05-08 20:42 | -33.94494 | 151.17885 | 29 ft | 15 kts | 196° |
| 2026-05-08 20:42 | -33.94597 | 151.17901 | 29 ft | 15 kts | 168° |
| 2026-05-08 20:42 | -33.94696 | 151.17927 | 29 ft | 14 kts | 168° |
| 2026-05-08 20:43 | -33.94791 | 151.17952 | 29 ft | 14 kts | 168° |
| 2026-05-08 20:43 | -33.94882 | 151.17975 | 29 ft | 13 kts | 168° |
| 2026-05-08 20:43 | -33.94970 | 151.17998 | 29 ft | 13 kts | 168° |
| 2026-05-08 20:43 | -33.95054 | 151.18019 | 29 ft | 12 kts | 168° |
| 2026-05-08 20:44 | -33.95117 | 151.18036 | 29 ft | 7 kts | 168° |
| 2026-05-08 20:44 | -33.95170 | 151.18035 | 29 ft | 9 kts | 208° |
| 2026-05-08 20:44 | -33.95199 | 151.17962 | 29 ft | 10 kts | 257° |
| 2026-05-08 20:44 | -33.95211 | 151.17892 | 29 ft | 1 kts | 258° |
| 2026-05-08 20:45 | -33.95213 | 151.17884 | 29 ft | 1 kts | 258° |
| 2026-05-08 20:45 | -33.95214 | 151.17878 | 29 ft | 2 kts | 257° |
| 2026-05-08 20:45 | -33.95234 | 151.17771 | 28 ft | 16 kts | 257° |
| 2026-05-08 20:45 | -33.95261 | 151.17644 | 28 ft | 15 kts | 245° |
| 2026-05-08 20:46 | -33.95343 | 151.17585 | 28 ft | 15 kts | 180° |
| 2026-05-08 20:46 | -33.95454 | 151.17609 | 29 ft | 17 kts | 168° |
| 2026-05-08 20:46 | -33.95570 | 151.17640 | 29 ft | 17 kts | 167° |
| 2026-05-08 20:46 | -33.95683 | 151.17669 | 29 ft | 16 kts | 168° |
| 2026-05-08 20:47 | -33.95790 | 151.17697 | 29 ft | 16 kts | 168° |
| 2026-05-08 20:47 | -33.95894 | 151.17723 | 29 ft | 15 kts | 168° |
| 2026-05-08 20:47 | -33.95993 | 151.17748 | 29 ft | 14 kts | 168° |
| 2026-05-08 20:47 | -33.96087 | 151.17774 | 29 ft | 14 kts | 167° |
| 2026-05-08 20:48 | -33.96178 | 151.17797 | 29 ft | 13 kts | 168° |
| 2026-05-08 20:48 | -33.96265 | 151.17820 | 29 ft | 13 kts | 168° |
| 2026-05-08 20:48 | -33.96343 | 151.17840 | 29 ft | 11 kts | 168° |
| 2026-05-08 20:48 | -33.96405 | 151.17859 | 29 ft | 8 kts | 156° |
| 2026-05-08 20:49 | -33.96438 | 151.17908 | 29 ft | 8 kts | 100° |
| 2026-05-08 20:49 | -33.96429 | 151.17970 | 29 ft | 7 kts | 77° |
| 2026-05-08 20:49 | -33.96413 | 151.18028 | 29 ft | 7 kts | 57° |
| 2026-05-08 20:49 | -33.96370 | 151.18048 | 29 ft | 7 kts | 354° |
| 2026-05-08 20:50 | -33.96342 | 151.18042 | 29 ft | 0 kts | 348° |
| 2026-05-08 20:50 | -33.96330 | 151.18039 | 29 ft | 15 kts | 348° |
| 2026-05-08 20:50 | -33.95962 | 151.17943 | 27 ft | 92 kts | 347° |
| 2026-05-08 20:51 | -33.95111 | 151.17719 | 29 ft | 155 kts | 347° |
| 2026-05-08 20:51 | -33.93970 | 151.17453 | 549 ft | 170 kts | 346° |
| 2026-05-08 20:51 | -33.92793 | 151.17170 | 1349 ft | 180 kts | 345° |
| 2026-05-08 20:51 | -33.91455 | 151.16840 | 1713 ft | 208 kts | 346° |
| 2026-05-08 20:52 | -33.90092 | 151.16213 | 2204 ft | 213 kts | 315° |
| 2026-05-08 20:52 | -33.89148 | 151.14848 | 2747 ft | 214 kts | 303° |
| 2026-05-08 20:52 | -33.88243 | 151.13449 | 3251 ft | 215 kts | 306° |
| 2026-05-08 20:52 | -33.87291 | 151.12055 | 3707 ft | 221 kts | 308° |
| 2026-05-08 20:53 | -33.86234 | 151.10568 | 3985 ft | 243 kts | 309° |
| 2026-05-08 20:53 | -33.85074 | 151.08997 | 4397 ft | 262 kts | 311° |
| 2026-05-08 20:53 | -33.83818 | 151.07346 | 5123 ft | 271 kts | 312° |
| 2026-05-08 20:53 | -33.82532 | 151.05694 | 6068 ft | 272 kts | 313° |
| 2026-05-08 20:54 | -33.81222 | 151.04038 | 6967 ft | 275 kts | 313° |
| 2026-05-08 20:54 | -33.79884 | 151.02365 | 7750 ft | 280 kts | 313° |
| 2026-05-08 20:54 | -33.78518 | 151.00670 | 8570 ft | 284 kts | 312° |
| 2026-05-08 20:54 | -33.77127 | 150.98952 | 9383 ft | 289 kts | 312° |
| 2026-05-08 20:55 | -33.75710 | 150.97207 | 10209 ft | 294 kts | 311° |
| 2026-05-08 20:55 | -33.74237 | 150.95396 | 10564 ft | 316 kts | 311° |
| 2026-05-08 20:55 | -33.72666 | 150.93466 | 10737 ft | 340 kts | 312° |
| 2026-05-08 20:55 | -33.70956 | 150.91370 | 10998 ft | 360 kts | 312° |
| 2026-05-08 20:56 | -33.69178 | 150.89199 | 11576 ft | 368 kts | 312° |
| 2026-05-08 20:56 | -33.67373 | 150.86999 | 12293 ft | 372 kts | 312° |
| 2026-05-08 20:56 | -33.65550 | 150.84779 | 13034 ft | 375 kts | 312° |
| 2026-05-08 20:56 | -33.63713 | 150.82538 | 13721 ft | 379 kts | 313° |
| 2026-05-08 20:57 | -33.61848 | 150.80265 | 14373 ft | 384 kts | 313° |
| 2026-05-08 20:57 | -33.59968 | 150.77976 | 15039 ft | 386 kts | 313° |
| 2026-05-08 20:57 | -33.58079 | 150.75677 | 15712 ft | 388 kts | 313° |
| 2026-05-08 20:57 | -33.56179 | 150.73363 | 16376 ft | 391 kts | 313° |
| 2026-05-08 20:58 | -33.54264 | 150.71030 | 17020 ft | 394 kts | 313° |
| 2026-05-08 20:58 | -33.52333 | 150.68676 | 17638 ft | 398 kts | 313° |
| 2026-05-08 20:58 | -33.50386 | 150.66300 | 18255 ft | 401 kts | 313° |
| 2026-05-08 20:58 | -33.48427 | 150.63907 | 18825 ft | 404 kts | 313° |
| 2026-05-08 20:59 | -33.46449 | 150.61486 | 19337 ft | 409 kts | 313° |
| 2026-05-08 20:59 | -33.44460 | 150.59040 | 19842 ft | 413 kts | 313° |
| 2026-05-08 20:59 | -33.42451 | 150.56561 | 20364 ft | 416 kts | 313° |
| 2026-05-08 20:59 | -33.40434 | 150.54061 | 20891 ft | 419 kts | 312° |
| 2026-05-08 21:00 | -33.38405 | 150.51537 | 21395 ft | 423 kts | 312° |
| 2026-05-08 21:00 | -33.36325 | 150.49024 | 21856 ft | 428 kts | 315° |
| 2026-05-08 21:00 | -33.34141 | 150.46582 | 22327 ft | 432 kts | 316° |
| 2026-05-08 21:00 | -33.31908 | 150.44155 | 22804 ft | 435 kts | 317° |
| 2026-05-08 21:01 | -33.29658 | 150.41715 | 23284 ft | 438 kts | 317° |
| 2026-05-08 21:01 | -33.27400 | 150.39249 | 23746 ft | 441 kts | 317° |
| 2026-05-08 21:01 | -33.25135 | 150.36755 | 24159 ft | 444 kts | 316° |
| 2026-05-08 21:01 | -33.22863 | 150.34238 | 24561 ft | 447 kts | 316° |
| 2026-05-08 21:02 | -33.20585 | 150.31706 | 24973 ft | 448 kts | 316° |
| 2026-05-08 21:02 | -33.18299 | 150.29163 | 25383 ft | 450 kts | 316° |
| 2026-05-08 21:02 | -33.16003 | 150.26608 | 25783 ft | 452 kts | 317° |
| 2026-05-08 21:02 | -33.13696 | 150.24044 | 26158 ft | 454 kts | 317° |
| 2026-05-08 21:03 | -33.11376 | 150.21469 | 26519 ft | 457 kts | 317° |
| 2026-05-08 21:03 | -33.09043 | 150.18881 | 26876 ft | 459 kts | 317° |
| 2026-05-08 21:03 | -33.06702 | 150.16286 | 27230 ft | 461 kts | 317° |
| 2026-05-08 21:03 | -33.04349 | 150.13682 | 27573 ft | 463 kts | 317° |
| 2026-05-08 21:04 | -33.01983 | 150.11063 | 27914 ft | 465 kts | 317° |
| 2026-05-08 21:04 | -32.99611 | 150.08440 | 28248 ft | 467 kts | 317° |
| 2026-05-08 21:04 | -32.97226 | 150.05804 | 28573 ft | 469 kts | 317° |
| 2026-05-08 21:04 | -32.94830 | 150.03160 | 28881 ft | 471 kts | 317° |
| 2026-05-08 21:05 | -32.92427 | 150.00499 | 29229 ft | 472 kts | 317° |
| 2026-05-08 21:05 | -32.90054 | 149.97821 | 29692 ft | 470 kts | 316° |
| 2026-05-08 21:05 | -32.87697 | 149.95137 | 30215 ft | 467 kts | 316° |
| 2026-05-08 21:05 | -32.85358 | 149.92470 | 30679 ft | 464 kts | 316° |
| 2026-05-08 21:06 | -32.83029 | 149.89821 | 31065 ft | 463 kts | 316° |
| 2026-05-08 21:06 | -32.80730 | 149.87214 | 31395 ft | 463 kts | 316° |
| 2026-05-08 21:06 | -32.78399 | 149.84576 | 31700 ft | 463 kts | 316° |
| 2026-05-08 21:06 | -32.76064 | 149.81938 | 32022 ft | 463 kts | 316° |
| 2026-05-08 21:07 | -32.73731 | 149.79303 | 32364 ft | 462 kts | 315° |
| 2026-05-08 21:07 | -32.71404 | 149.76673 | 32687 ft | 462 kts | 315° |
| 2026-05-08 21:07 | -32.69078 | 149.74044 | 33010 ft | 462 kts | 315° |
| 2026-05-08 21:07 | -32.66753 | 149.71416 | 33319 ft | 461 kts | 315° |
| 2026-05-08 21:08 | -32.64430 | 149.68793 | 33617 ft | 462 kts | 315° |
| 2026-05-08 21:08 | -32.62105 | 149.66168 | 33918 ft | 462 kts | 315° |
| 2026-05-08 21:08 | -32.59774 | 149.63540 | 34196 ft | 462 kts | 315° |
| 2026-05-08 21:08 | -32.57444 | 149.60916 | 34452 ft | 462 kts | 315° |
| 2026-05-08 21:09 | -32.55181 | 149.58223 | 34737 ft | 460 kts | 310° |
| 2026-05-08 21:09 | -32.53123 | 149.55346 | 35054 ft | 457 kts | 308° |
| 2026-05-08 21:09 | -32.51135 | 149.52422 | 35392 ft | 454 kts | 307° |
| 2026-05-08 21:09 | -32.49182 | 149.49510 | 35783 ft | 449 kts | 307° |
| 2026-05-08 21:10 | -32.47896 | 149.47597 | 36057 ft | 446 kts | 307° |
| 2026-05-08 21:10 | -32.45306 | 149.43778 | 36335 ft | 446 kts | 307° |
| 2026-05-08 21:10 | -32.43346 | 149.40915 | 36342 ft | 448 kts | 307° |
| 2026-05-08 21:11 | -32.40073 | 149.36173 | 36331 ft | 446 kts | 308° |
| 2026-05-08 21:11 | -32.36170 | 149.30544 | 36339 ft | 440 kts | 308° |
| 2026-05-08 21:12 | -32.32290 | 149.24953 | 36339 ft | 439 kts | 308° |
| 2026-05-08 21:12 | -32.28414 | 149.19372 | 36339 ft | 439 kts | 308° |
| 2026-05-08 21:13 | -32.24540 | 149.13802 | 36339 ft | 439 kts | 308° |
| 2026-05-08 21:13 | -32.20665 | 149.08239 | 36331 ft | 439 kts | 308° |
| 2026-05-08 21:14 | -32.16774 | 149.02677 | 36333 ft | 439 kts | 308° |
| 2026-05-08 21:14 | -32.12879 | 148.97117 | 36327 ft | 440 kts | 308° |
| 2026-05-08 21:15 | -32.08969 | 148.91561 | 36331 ft | 441 kts | 310° |
| 2026-05-08 21:15 | -32.06695 | 148.89136 | 36330 ft | 443 kts | 323° |
| 2026-05-08 21:15 | -32.04019 | 148.87319 | 36330 ft | 446 kts | 335° |
| 2026-05-08 21:15 | -32.01070 | 148.86178 | 36332 ft | 448 kts | 346° |
| 2026-05-08 21:16 | -31.98017 | 148.85424 | 36334 ft | 449 kts | 347° |
| 2026-05-08 21:16 | -31.91878 | 148.84034 | 36325 ft | 449 kts | 347° |
| 2026-05-08 21:17 | -31.85743 | 148.82616 | 36324 ft | 449 kts | 346° |
| 2026-05-08 21:17 | -31.79620 | 148.81151 | 36326 ft | 449 kts | 346° |
| 2026-05-08 21:18 | -31.73509 | 148.79670 | 36323 ft | 448 kts | 346° |
| 2026-05-08 21:18 | -31.67402 | 148.78190 | 36321 ft | 447 kts | 346° |
| 2026-05-08 21:19 | -31.61311 | 148.76718 | 36323 ft | 446 kts | 346° |
| 2026-05-08 21:19 | -31.55234 | 148.75251 | 36319 ft | 445 kts | 346° |
| 2026-05-08 21:20 | -31.49164 | 148.73789 | 36317 ft | 444 kts | 346° |
| 2026-05-08 21:20 | -31.43113 | 148.72334 | 36315 ft | 444 kts | 345° |
| 2026-05-08 21:21 | -31.37072 | 148.70882 | 36315 ft | 443 kts | 345° |
| 2026-05-08 21:21 | -31.31078 | 148.69443 | 36312 ft | 442 kts | 345° |
| 2026-05-08 21:22 | -31.25050 | 148.67998 | 36313 ft | 442 kts | 345° |
| 2026-05-08 21:22 | -31.19031 | 148.66557 | 36311 ft | 442 kts | 345° |
| 2026-05-08 21:23 | -31.13010 | 148.65118 | 36309 ft | 442 kts | 345° |
| 2026-05-08 21:23 | -31.06985 | 148.63681 | 36308 ft | 442 kts | 345° |
| 2026-05-08 21:24 | -31.00965 | 148.62247 | 36308 ft | 442 kts | 345° |
| 2026-05-08 21:24 | -30.94939 | 148.60814 | 36309 ft | 442 kts | 345° |
| 2026-05-08 21:25 | -30.88911 | 148.59382 | 36307 ft | 442 kts | 345° |
| 2026-05-08 21:25 | -30.82889 | 148.57953 | 36308 ft | 442 kts | 345° |
| 2026-05-08 21:26 | -30.76866 | 148.56525 | 36306 ft | 442 kts | 345° |
| 2026-05-08 21:26 | -30.70844 | 148.55100 | 36303 ft | 441 kts | 344° |
| 2026-05-08 21:27 | -30.64834 | 148.53679 | 36302 ft | 441 kts | 344° |
| 2026-05-08 21:27 | -30.58827 | 148.52261 | 36303 ft | 440 kts | 344° |
| 2026-05-08 21:28 | -30.52829 | 148.50847 | 36303 ft | 439 kts | 344° |
| 2026-05-08 21:28 | -30.46838 | 148.49436 | 36304 ft | 439 kts | 344° |
| 2026-05-08 21:29 | -30.40862 | 148.48031 | 36306 ft | 438 kts | 344° |
| 2026-05-08 21:29 | -30.34894 | 148.46629 | 36305 ft | 437 kts | 343° |
| 2026-05-08 21:30 | -30.28937 | 148.45231 | 36302 ft | 436 kts | 343° |
| 2026-05-08 21:30 | -30.23026 | 148.43845 | 36300 ft | 436 kts | 343° |
| 2026-05-08 21:31 | -30.17089 | 148.42456 | 36303 ft | 435 kts | 343° |
| 2026-05-08 21:31 | -30.11158 | 148.41069 | 36302 ft | 434 kts | 343° |
| 2026-05-08 21:32 | -30.05236 | 148.39686 | 36300 ft | 434 kts | 343° |
| 2026-05-08 21:32 | -29.99320 | 148.38306 | 36301 ft | 434 kts | 343° |
| 2026-05-08 21:33 | -29.93410 | 148.36929 | 36306 ft | 433 kts | 343° |
| 2026-05-08 21:33 | -29.87498 | 148.35554 | 36304 ft | 433 kts | 342° |
| 2026-05-08 21:34 | -29.81595 | 148.34183 | 36307 ft | 433 kts | 342° |
| 2026-05-08 21:34 | -29.75692 | 148.32813 | 36302 ft | 432 kts | 342° |
| 2026-05-08 21:35 | -29.69799 | 148.31447 | 36306 ft | 432 kts | 342° |
| 2026-05-08 21:35 | -29.63904 | 148.30082 | 36310 ft | 432 kts | 342° |
| 2026-05-08 21:36 | -29.58013 | 148.28720 | 36306 ft | 432 kts | 342° |
| 2026-05-08 21:36 | -29.52133 | 148.27361 | 36302 ft | 431 kts | 342° |
| 2026-05-08 21:37 | -29.46252 | 148.26005 | 36302 ft | 431 kts | 341° |
| 2026-05-08 21:37 | -29.40381 | 148.24652 | 36305 ft | 430 kts | 341° |
| 2026-05-08 21:38 | -29.34511 | 148.23301 | 36307 ft | 430 kts | 341° |
| 2026-05-08 21:38 | -29.28689 | 148.21962 | 36305 ft | 429 kts | 341° |
| 2026-05-08 21:39 | -29.22832 | 148.20617 | 36305 ft | 429 kts | 341° |
| 2026-05-08 21:39 | -29.16986 | 148.19276 | 36306 ft | 428 kts | 341° |
| 2026-05-08 21:40 | -29.11145 | 148.17937 | 36304 ft | 428 kts | 341° |
| 2026-05-08 21:40 | -29.05309 | 148.16602 | 36308 ft | 427 kts | 341° |
| 2026-05-08 21:41 | -28.96570 | 148.14605 | 36311 ft | 427 kts | 340° |
| 2026-05-08 21:41 | -28.90748 | 148.13275 | 36305 ft | 426 kts | 340° |
| 2026-05-08 21:42 | -28.84936 | 148.11950 | 36309 ft | 426 kts | 340° |
| 2026-05-08 21:42 | -28.79128 | 148.10626 | 36309 ft | 425 kts | 340° |
| 2026-05-08 21:43 | -28.73328 | 148.09306 | 36305 ft | 425 kts | 340° |
| 2026-05-08 21:43 | -28.67536 | 148.07989 | 36313 ft | 424 kts | 340° |
| 2026-05-08 21:44 | -28.61750 | 148.06676 | 36315 ft | 423 kts | 339° |
| 2026-05-08 21:44 | -28.55977 | 148.05366 | 36313 ft | 423 kts | 339° |
| 2026-05-08 21:45 | -28.50210 | 148.04059 | 36313 ft | 422 kts | 339° |
| 2026-05-08 21:45 | -28.44451 | 148.02756 | 36313 ft | 422 kts | 339° |
| 2026-05-08 21:46 | -28.38702 | 148.01456 | 36315 ft | 421 kts | 339° |
| 2026-05-08 21:46 | -28.32954 | 148.00158 | 36313 ft | 421 kts | 339° |
| 2026-05-08 21:47 | -28.27217 | 147.98864 | 36314 ft | 420 kts | 339° |
| 2026-05-08 21:47 | -28.21481 | 147.97571 | 36316 ft | 420 kts | 338° |
| 2026-05-08 21:48 | -28.15792 | 147.96291 | 36317 ft | 419 kts | 338° |
| 2026-05-08 21:48 | -28.10071 | 147.95004 | 36314 ft | 419 kts | 338° |
| 2026-05-08 21:49 | -28.04351 | 147.93720 | 36315 ft | 419 kts | 338° |
| 2026-05-08 21:49 | -27.98641 | 147.92438 | 36314 ft | 418 kts | 338° |
| 2026-05-08 21:50 | -27.92940 | 147.91161 | 36315 ft | 418 kts | 338° |
| 2026-05-08 21:50 | -27.87241 | 147.89885 | 36316 ft | 417 kts | 338° |
| 2026-05-08 21:51 | -27.81551 | 147.88613 | 36317 ft | 417 kts | 338° |
| 2026-05-08 21:51 | -27.75867 | 147.87343 | 36315 ft | 416 kts | 338° |
| 2026-05-08 21:52 | -27.70190 | 147.86076 | 36313 ft | 416 kts | 338° |
| 2026-05-08 21:52 | -27.64520 | 147.84812 | 36316 ft | 415 kts | 337° |
| 2026-05-08 21:53 | -27.58857 | 147.83551 | 36314 ft | 414 kts | 337° |
| 2026-05-08 21:53 | -27.53204 | 147.82293 | 36318 ft | 414 kts | 337° |
| 2026-05-08 21:54 | -27.47557 | 147.81039 | 36319 ft | 413 kts | 337° |
| 2026-05-08 21:54 | -27.41922 | 147.79788 | 36313 ft | 413 kts | 337° |
| 2026-05-08 21:55 | -27.36328 | 147.78547 | 36313 ft | 412 kts | 337° |
| 2026-05-08 21:56 | -27.27865 | 147.76673 | 36317 ft | 411 kts | 336° |
| 2026-05-08 21:56 | -27.22295 | 147.75441 | 36321 ft | 410 kts | 336° |
| 2026-05-08 21:57 | -27.16657 | 147.74195 | 36316 ft | 410 kts | 336° |
| 2026-05-08 21:57 | -27.11099 | 147.72969 | 36318 ft | 409 kts | 336° |
| 2026-05-08 21:58 | -27.05479 | 147.71729 | 36314 ft | 409 kts | 336° |
| 2026-05-08 21:58 | -26.99935 | 147.70508 | 36319 ft | 408 kts | 336° |
| 2026-05-08 21:59 | -26.94366 | 147.69283 | 36316 ft | 408 kts | 336° |
| 2026-05-08 21:59 | -26.89706 | 147.68258 | 36314 ft | 407 kts | 336° |
| 2026-05-08 22:00 | -26.84154 | 147.67039 | 36316 ft | 406 kts | 336° |
| 2026-05-08 22:00 | -26.78607 | 147.65821 | 36318 ft | 406 kts | 336° |
| 2026-05-08 22:01 | -26.73109 | 147.64615 | 36319 ft | 405 kts | 336° |
| 2026-05-08 22:01 | -26.67572 | 147.63402 | 36317 ft | 405 kts | 336° |
| 2026-05-08 22:02 | -26.62042 | 147.62192 | 36324 ft | 405 kts | 336° |
| 2026-05-08 22:02 | -26.56509 | 147.60983 | 36320 ft | 405 kts | 336° |
| 2026-05-08 22:03 | -26.50977 | 147.59775 | 36314 ft | 405 kts | 336° |
| 2026-05-08 22:03 | -26.45449 | 147.58569 | 36316 ft | 405 kts | 336° |
| 2026-05-08 22:04 | -26.39921 | 147.57364 | 36316 ft | 405 kts | 336° |
| 2026-05-08 22:04 | -26.34393 | 147.56160 | 36301 ft | 405 kts | 336° |
| 2026-05-08 22:05 | -26.28869 | 147.54959 | 36309 ft | 404 kts | 336° |
| 2026-05-08 22:05 | -26.23351 | 147.53761 | 36318 ft | 404 kts | 336° |
| 2026-05-08 22:06 | -26.17836 | 147.52563 | 36313 ft | 404 kts | 336° |
| 2026-05-08 22:06 | -26.12324 | 147.51368 | 36306 ft | 403 kts | 336° |
| 2026-05-08 22:07 | -26.06822 | 147.50176 | 36309 ft | 403 kts | 336° |
| 2026-05-08 22:07 | -26.01319 | 147.48985 | 36306 ft | 403 kts | 336° |
| 2026-05-08 22:08 | -25.95823 | 147.47796 | 36311 ft | 402 kts | 336° |
| 2026-05-08 22:08 | -25.90326 | 147.46608 | 36302 ft | 403 kts | 336° |
| 2026-05-08 22:09 | -25.84831 | 147.45422 | 36305 ft | 402 kts | 336° |
| 2026-05-08 22:09 | -25.79337 | 147.44238 | 36302 ft | 402 kts | 336° |
| 2026-05-08 22:10 | -25.73854 | 147.43056 | 36304 ft | 401 kts | 336° |
| 2026-05-08 22:10 | -25.68368 | 147.41875 | 36301 ft | 401 kts | 336° |
| 2026-05-08 22:11 | -25.62891 | 147.40698 | 36305 ft | 401 kts | 336° |
| 2026-05-08 22:11 | -25.57450 | 147.39528 | 36300 ft | 401 kts | 336° |
| 2026-05-08 22:12 | -25.51978 | 147.38354 | 36298 ft | 401 kts | 336° |
| 2026-05-08 22:12 | -25.46508 | 147.37181 | 36293 ft | 400 kts | 336° |
| 2026-05-08 22:13 | -25.41048 | 147.36011 | 36294 ft | 400 kts | 335° |
| 2026-05-08 22:13 | -25.35594 | 147.34843 | 36290 ft | 399 kts | 335° |
| 2026-05-08 22:14 | -25.30139 | 147.33677 | 36292 ft | 399 kts | 335° |
| 2026-05-08 22:14 | -25.24694 | 147.32517 | 36289 ft | 400 kts | 337° |
| 2026-05-08 22:14 | -25.21891 | 147.32159 | 36282 ft | 412 kts | 343° |
| 2026-05-08 22:15 | -25.19022 | 147.32039 | 36293 ft | 413 kts | 344° |
| 2026-05-08 22:15 | -25.13270 | 147.31838 | 36288 ft | 413 kts | 344° |
| 2026-05-08 22:16 | -25.07531 | 147.31631 | 36287 ft | 412 kts | 344° |
| 2026-05-08 22:16 | -25.01841 | 147.31410 | 36279 ft | 411 kts | 343° |
| 2026-05-08 22:17 | -24.96123 | 147.31179 | 36278 ft | 411 kts | 344° |
| 2026-05-08 22:17 | -24.90413 | 147.30947 | 36273 ft | 410 kts | 344° |
| 2026-05-08 22:18 | -24.84714 | 147.30715 | 36274 ft | 410 kts | 344° |
| 2026-05-08 22:18 | -24.79015 | 147.30483 | 36269 ft | 410 kts | 344° |
| 2026-05-08 22:19 | -24.73323 | 147.30252 | 36261 ft | 409 kts | 344° |
| 2026-05-08 22:19 | -24.67634 | 147.30022 | 36270 ft | 409 kts | 344° |
| 2026-05-08 22:20 | -24.61948 | 147.29792 | 36269 ft | 409 kts | 344° |
| 2026-05-08 22:20 | -24.56261 | 147.29562 | 36260 ft | 409 kts | 344° |
| 2026-05-08 22:21 | -24.50573 | 147.29332 | 36266 ft | 409 kts | 344° |
| 2026-05-08 22:21 | -24.44887 | 147.29103 | 36259 ft | 409 kts | 344° |
| 2026-05-08 22:22 | -24.39196 | 147.28873 | 36258 ft | 409 kts | 344° |
| 2026-05-08 22:22 | -24.33501 | 147.28644 | 36262 ft | 410 kts | 344° |
| 2026-05-08 22:23 | -24.27802 | 147.28414 | 36258 ft | 410 kts | 344° |
| 2026-05-08 22:23 | -24.22137 | 147.28187 | 36267 ft | 410 kts | 344° |
| 2026-05-08 22:24 | -24.16432 | 147.27958 | 36265 ft | 410 kts | 344° |
| 2026-05-08 22:24 | -24.10729 | 147.27730 | 36261 ft | 410 kts | 344° |
| 2026-05-08 22:25 | -24.05032 | 147.27502 | 36259 ft | 410 kts | 344° |
| 2026-05-08 22:25 | -23.99338 | 147.27274 | 36259 ft | 409 kts | 344° |
| 2026-05-08 22:26 | -23.93654 | 147.27047 | 36263 ft | 409 kts | 344° |
| 2026-05-08 22:26 | -23.87972 | 147.26820 | 36255 ft | 408 kts | 344° |
| 2026-05-08 22:27 | -23.82303 | 147.26594 | 36254 ft | 408 kts | 344° |
| 2026-05-08 22:27 | -23.76637 | 147.26368 | 36248 ft | 407 kts | 344° |
| 2026-05-08 22:28 | -23.70980 | 147.26142 | 36249 ft | 407 kts | 344° |
| 2026-05-08 22:28 | -23.65327 | 147.25917 | 36243 ft | 406 kts | 345° |
| 2026-05-08 22:29 | -23.59677 | 147.25691 | 36256 ft | 407 kts | 345° |
| 2026-05-08 22:29 | -23.54022 | 147.25466 | 36234 ft | 405 kts | 345° |
| 2026-05-08 22:30 | -23.48381 | 147.25243 | 36256 ft | 406 kts | 345° |
| 2026-05-08 22:30 | -23.42725 | 147.25016 | 36240 ft | 407 kts | 345° |
| 2026-05-08 22:31 | -23.37054 | 147.24791 | 36250 ft | 408 kts | 345° |
| 2026-05-08 22:31 | -23.31411 | 147.24567 | 36249 ft | 409 kts | 345° |
| 2026-05-08 22:32 | -23.25725 | 147.24343 | 36249 ft | 409 kts | 345° |
| 2026-05-08 22:32 | -23.20033 | 147.24118 | 36242 ft | 410 kts | 345° |
| 2026-05-08 22:33 | -23.14333 | 147.23893 | 36241 ft | 410 kts | 345° |
| 2026-05-08 22:33 | -23.08631 | 147.23668 | 36246 ft | 410 kts | 345° |
| 2026-05-08 22:34 | -23.02930 | 147.23443 | 36244 ft | 410 kts | 345° |
| 2026-05-08 22:34 | -22.97228 | 147.23218 | 36244 ft | 410 kts | 345° |
| 2026-05-08 22:35 | -22.91526 | 147.22994 | 36259 ft | 410 kts | 345° |
| 2026-05-08 22:35 | -22.85824 | 147.22769 | 36246 ft | 410 kts | 345° |
| 2026-05-08 22:36 | -22.80116 | 147.22545 | 36239 ft | 410 kts | 345° |
| 2026-05-08 22:36 | -22.74416 | 147.22321 | 36243 ft | 410 kts | 345° |
| 2026-05-08 22:37 | -22.68713 | 147.22097 | 36244 ft | 410 kts | 345° |
| 2026-05-08 22:37 | -22.63004 | 147.21873 | 36239 ft | 411 kts | 346° |
| 2026-05-08 22:38 | -22.57290 | 147.21648 | 36239 ft | 411 kts | 346° |
| 2026-05-08 22:38 | -22.51572 | 147.21425 | 36239 ft | 411 kts | 346° |
| 2026-05-08 22:39 | -22.45844 | 147.21201 | 36238 ft | 412 kts | 346° |
| 2026-05-08 22:39 | -22.40151 | 147.20978 | 36233 ft | 412 kts | 346° |
| 2026-05-08 22:40 | -22.34376 | 147.20752 | 36234 ft | 413 kts | 346° |
| 2026-05-08 22:40 | -22.28671 | 147.20530 | 36232 ft | 413 kts | 346° |
| 2026-05-08 22:41 | -22.22920 | 147.20305 | 36227 ft | 414 kts | 346° |
| 2026-05-08 22:41 | -22.17166 | 147.20080 | 36234 ft | 414 kts | 346° |
| 2026-05-08 22:42 | -22.11406 | 147.19854 | 36229 ft | 414 kts | 346° |
| 2026-05-08 22:42 | -22.05644 | 147.19629 | 36225 ft | 414 kts | 346° |
| 2026-05-08 22:43 | -21.99877 | 147.19404 | 36225 ft | 415 kts | 346° |
| 2026-05-08 22:43 | -21.94106 | 147.19179 | 36232 ft | 415 kts | 346° |
| 2026-05-08 22:44 | -21.88333 | 147.18954 | 36226 ft | 415 kts | 347° |
| 2026-05-08 22:44 | -21.82556 | 147.18729 | 36226 ft | 415 kts | 347° |
| 2026-05-08 22:45 | -21.76779 | 147.18504 | 36227 ft | 415 kts | 347° |
| 2026-05-08 22:45 | -21.71003 | 147.18280 | 36224 ft | 415 kts | 347° |
| 2026-05-08 22:46 | -21.65224 | 147.18055 | 36225 ft | 415 kts | 347° |
| 2026-05-08 22:46 | -21.59446 | 147.17831 | 36222 ft | 416 kts | 347° |
| 2026-05-08 22:47 | -21.53662 | 147.17606 | 36221 ft | 416 kts | 347° |
| 2026-05-08 22:47 | -21.47880 | 147.17382 | 36219 ft | 416 kts | 347° |
| 2026-05-08 22:48 | -21.42135 | 147.17160 | 36221 ft | 416 kts | 347° |
| 2026-05-08 22:48 | -21.36344 | 147.16935 | 36215 ft | 416 kts | 347° |
| 2026-05-08 22:49 | -21.31492 | 147.16748 | 36216 ft | 417 kts | 347° |
| 2026-05-08 22:49 | -21.22798 | 147.16412 | 36211 ft | 417 kts | 347° |
| 2026-05-08 22:50 | -21.16994 | 147.16188 | 36210 ft | 417 kts | 347° |
| 2026-05-08 22:50 | -21.11189 | 147.15964 | 36205 ft | 418 kts | 347° |
| 2026-05-08 22:51 | -21.05383 | 147.15740 | 36205 ft | 418 kts | 347° |
| 2026-05-08 22:51 | -20.99572 | 147.15517 | 36201 ft | 418 kts | 347° |
| 2026-05-08 22:52 | -20.93760 | 147.15293 | 36204 ft | 418 kts | 347° |
| 2026-05-08 22:52 | -20.87985 | 147.15071 | 36195 ft | 418 kts | 348° |
| 2026-05-08 22:53 | -20.82166 | 147.14847 | 36198 ft | 419 kts | 348° |
| 2026-05-08 22:53 | -20.76341 | 147.14624 | 36197 ft | 418 kts | 348° |
| 2026-05-08 22:54 | -20.70536 | 147.14327 | 36194 ft | 413 kts | 343° |
| 2026-05-08 22:54 | -20.65035 | 147.13015 | 36193 ft | 404 kts | 336° |
| 2026-05-08 22:55 | -20.59591 | 147.11515 | 36185 ft | 404 kts | 336° |
| 2026-05-08 22:55 | -20.54140 | 147.10033 | 36183 ft | 404 kts | 337° |
| 2026-05-08 22:56 | -20.48680 | 147.08569 | 36187 ft | 405 kts | 337° |
| 2026-05-08 22:56 | -20.43212 | 147.07108 | 36187 ft | 406 kts | 337° |
| 2026-05-08 22:57 | -20.37728 | 147.05646 | 36182 ft | 406 kts | 337° |
| 2026-05-08 22:57 | -20.32238 | 147.04183 | 36186 ft | 407 kts | 337° |
| 2026-05-08 22:58 | -20.26738 | 147.02719 | 36173 ft | 407 kts | 337° |
| 2026-05-08 22:58 | -20.21246 | 147.01259 | 36185 ft | 407 kts | 337° |
| 2026-05-08 22:59 | -20.15744 | 146.99795 | 36181 ft | 407 kts | 337° |
| 2026-05-08 22:59 | -20.10239 | 146.98332 | 36172 ft | 408 kts | 338° |
| 2026-05-08 23:00 | -20.04729 | 146.96869 | 36177 ft | 408 kts | 338° |
| 2026-05-08 23:00 | -19.99220 | 146.95408 | 36172 ft | 408 kts | 338° |
| 2026-05-08 23:01 | -19.93719 | 146.93949 | 36187 ft | 407 kts | 338° |
| 2026-05-08 23:01 | -19.88218 | 146.92491 | 36176 ft | 408 kts | 338° |
| 2026-05-08 23:02 | -19.82709 | 146.91032 | 36176 ft | 408 kts | 337° |
| 2026-05-08 23:02 | -19.77517 | 146.88906 | 36182 ft | 396 kts | 327° |
| 2026-05-08 23:03 | -19.72587 | 146.86276 | 36170 ft | 397 kts | 326° |
| 2026-05-08 23:03 | -19.67646 | 146.83647 | 36171 ft | 398 kts | 327° |
| 2026-05-08 23:04 | -19.62686 | 146.81029 | 36174 ft | 398 kts | 327° |
| 2026-05-08 23:04 | -19.57722 | 146.78419 | 36155 ft | 398 kts | 327° |
| 2026-05-08 23:05 | -19.52752 | 146.75810 | 36158 ft | 399 kts | 327° |
| 2026-05-08 23:05 | -19.47809 | 146.73217 | 36151 ft | 399 kts | 327° |
| 2026-05-08 23:06 | -19.42827 | 146.70605 | 36141 ft | 400 kts | 327° |
| 2026-05-08 23:06 | -19.37833 | 146.67989 | 36135 ft | 400 kts | 327° |
| 2026-05-08 23:07 | -19.32841 | 146.65376 | 36133 ft | 401 kts | 327° |
| 2026-05-08 23:07 | -19.27841 | 146.62760 | 36136 ft | 401 kts | 327° |
| 2026-05-08 23:08 | -19.22841 | 146.60146 | 36136 ft | 401 kts | 327° |
| 2026-05-08 23:08 | -19.17835 | 146.57531 | 36155 ft | 401 kts | 327° |
| 2026-05-08 23:09 | -19.12832 | 146.54919 | 36154 ft | 401 kts | 327° |
| 2026-05-08 23:09 | -19.07822 | 146.52305 | 36153 ft | 401 kts | 327° |
| 2026-05-08 23:10 | -19.02815 | 146.49695 | 36151 ft | 401 kts | 327° |
| 2026-05-08 23:10 | -18.97810 | 146.47087 | 36150 ft | 401 kts | 327° |
| 2026-05-08 23:11 | -18.92798 | 146.44478 | 36148 ft | 401 kts | 327° |
| 2026-05-08 23:11 | -18.87791 | 146.41872 | 36142 ft | 401 kts | 327° |
| 2026-05-08 23:12 | -18.82780 | 146.39267 | 36145 ft | 402 kts | 328° |
| 2026-05-08 23:12 | -18.77766 | 146.36661 | 36143 ft | 402 kts | 327° |
| 2026-05-08 23:13 | -18.72755 | 146.34059 | 36140 ft | 402 kts | 328° |
| 2026-05-08 23:13 | -18.67738 | 146.31456 | 36142 ft | 402 kts | 328° |
| 2026-05-08 23:14 | -18.62721 | 146.28854 | 36140 ft | 402 kts | 328° |
| 2026-05-08 23:14 | -18.57700 | 146.26252 | 36144 ft | 402 kts | 328° |
| 2026-05-08 23:15 | -18.52712 | 146.23668 | 36144 ft | 402 kts | 328° |
| 2026-05-08 23:15 | -18.47655 | 146.21051 | 36134 ft | 402 kts | 328° |
| 2026-05-08 23:16 | -18.42663 | 146.18469 | 36138 ft | 403 kts | 328° |
| 2026-05-08 23:16 | -18.37632 | 146.15868 | 36082 ft | 404 kts | 328° |
| 2026-05-08 23:17 | -18.35091 | 146.14553 | 35633 ft | 407 kts | 328° |
| 2026-05-08 23:17 | -18.32567 | 146.13251 | 35197 ft | 402 kts | 328° |
| 2026-05-08 23:17 | -18.30064 | 146.11961 | 34776 ft | 399 kts | 328° |
| 2026-05-08 23:17 | -18.27579 | 146.10680 | 34329 ft | 396 kts | 328° |
| 2026-05-08 23:18 | -18.25111 | 146.09407 | 33850 ft | 394 kts | 328° |
| 2026-05-08 23:18 | -18.22656 | 146.08142 | 33391 ft | 391 kts | 328° |
| 2026-05-08 23:18 | -18.20223 | 146.06887 | 32950 ft | 388 kts | 328° |
| 2026-05-08 23:18 | -18.17811 | 146.05644 | 32522 ft | 385 kts | 328° |
| 2026-05-08 23:19 | -18.15415 | 146.04410 | 32069 ft | 383 kts | 328° |
| 2026-05-08 23:19 | -18.13042 | 146.03188 | 31830 ft | 377 kts | 328° |
| 2026-05-08 23:19 | -18.10652 | 146.01953 | 31590 ft | 390 kts | 328° |
| 2026-05-08 23:19 | -18.08175 | 146.00670 | 31394 ft | 404 kts | 328° |
| 2026-05-08 23:20 | -18.05612 | 145.99345 | 31174 ft | 417 kts | 329° |
| 2026-05-08 23:20 | -18.02974 | 145.97985 | 30953 ft | 428 kts | 329° |
| 2026-05-08 23:20 | -18.00275 | 145.96597 | 30723 ft | 434 kts | 329° |
| 2026-05-08 23:20 | -17.97566 | 145.95208 | 30486 ft | 432 kts | 329° |
| 2026-05-08 23:21 | -17.94866 | 145.93826 | 30262 ft | 432 kts | 329° |
| 2026-05-08 23:21 | -17.92170 | 145.92444 | 29998 ft | 431 kts | 329° |
| 2026-05-08 23:21 | -17.89474 | 145.91060 | 29739 ft | 430 kts | 329° |
| 2026-05-08 23:21 | -17.86821 | 145.89699 | 29468 ft | 430 kts | 329° |
| 2026-05-08 23:22 | -17.84134 | 145.88320 | 29185 ft | 429 kts | 329° |
| 2026-05-08 23:22 | -17.81454 | 145.86944 | 28386 ft | 428 kts | 330° |
| 2026-05-08 23:22 | -17.78789 | 145.85577 | 27748 ft | 424 kts | 330° |
| 2026-05-08 23:22 | -17.76152 | 145.84225 | 27166 ft | 420 kts | 330° |
| 2026-05-08 23:23 | -17.73541 | 145.82886 | 26571 ft | 416 kts | 330° |
| 2026-05-08 23:23 | -17.70955 | 145.81560 | 25990 ft | 412 kts | 330° |
| 2026-05-08 23:23 | -17.68387 | 145.80245 | 25414 ft | 408 kts | 330° |
| 2026-05-08 23:23 | -17.65843 | 145.78943 | 24814 ft | 407 kts | 331° |
| 2026-05-08 23:24 | -17.63302 | 145.77644 | 24239 ft | 405 kts | 331° |
| 2026-05-08 23:24 | -17.60777 | 145.76355 | 23642 ft | 403 kts | 331° |
| 2026-05-08 23:24 | -17.58267 | 145.75073 | 22990 ft | 400 kts | 331° |
| 2026-05-08 23:24 | -17.55772 | 145.73799 | 22381 ft | 397 kts | 332° |
| 2026-05-08 23:25 | -17.53298 | 145.72536 | 21805 ft | 394 kts | 332° |
| 2026-05-08 23:25 | -17.50845 | 145.71284 | 21221 ft | 391 kts | 332° |
| 2026-05-08 23:25 | -17.48411 | 145.70041 | 20674 ft | 387 kts | 332° |
| 2026-05-08 23:25 | -17.45997 | 145.68810 | 20118 ft | 385 kts | 332° |
| 2026-05-08 23:26 | -17.43595 | 145.67584 | 19551 ft | 383 kts | 332° |
| 2026-05-08 23:26 | -17.41204 | 145.66365 | 19003 ft | 381 kts | 332° |
| 2026-05-08 23:26 | -17.38820 | 145.65149 | 18439 ft | 380 kts | 332° |
| 2026-05-08 23:26 | -17.36446 | 145.63939 | 17836 ft | 378 kts | 332° |
| 2026-05-08 23:27 | -17.34092 | 145.62740 | 17275 ft | 375 kts | 332° |
| 2026-05-08 23:27 | -17.31759 | 145.61551 | 16729 ft | 372 kts | 332° |
| 2026-05-08 23:27 | -17.29443 | 145.60372 | 16198 ft | 369 kts | 332° |
| 2026-05-08 23:27 | -17.27147 | 145.59202 | 15673 ft | 366 kts | 333° |
| 2026-05-08 23:28 | -17.24861 | 145.58037 | 15162 ft | 365 kts | 333° |
| 2026-05-08 23:28 | -17.22574 | 145.56874 | 14614 ft | 365 kts | 333° |
| 2026-05-08 23:28 | -17.20290 | 145.55711 | 14071 ft | 365 kts | 334° |
| 2026-05-08 23:28 | -17.18009 | 145.54551 | 13496 ft | 364 kts | 334° |
| 2026-05-08 23:29 | -17.15737 | 145.53397 | 12951 ft | 362 kts | 334° |
| 2026-05-08 23:29 | -17.13479 | 145.52249 | 12423 ft | 360 kts | 334° |
| 2026-05-08 23:29 | -17.11232 | 145.51107 | 11893 ft | 358 kts | 334° |
| 2026-05-08 23:29 | -17.08995 | 145.49971 | 11375 ft | 357 kts | 334° |
| 2026-05-08 23:30 | -17.06776 | 145.48844 | 11042 ft | 350 kts | 335° |
| 2026-05-08 23:30 | -17.04616 | 145.47746 | 10830 ft | 340 kts | 335° |
| 2026-05-08 23:30 | -17.02523 | 145.46683 | 10671 ft | 329 kts | 335° |
| 2026-05-08 23:30 | -17.00521 | 145.45667 | 10529 ft | 319 kts | 335° |
| 2026-05-08 23:31 | -16.98556 | 145.44670 | 10384 ft | 309 kts | 335° |
| 2026-05-08 23:31 | -16.96617 | 145.43686 | 10198 ft | 303 kts | 335° |
| 2026-05-08 23:31 | -16.94769 | 145.42749 | 10063 ft | 295 kts | 335° |
| 2026-05-08 23:31 | -16.92907 | 145.41929 | 9917 ft | 285 kts | 348° |
| 2026-05-08 23:32 | -16.90949 | 145.41865 | 9480 ft | 282 kts | 13° |
| 2026-05-08 23:32 | -16.89155 | 145.42570 | 9125 ft | 272 kts | 30° |
| 2026-05-08 23:32 | -16.87512 | 145.43496 | 8830 ft | 267 kts | 31° |
| 2026-05-08 23:32 | -16.85907 | 145.44423 | 8670 ft | 257 kts | 31° |
| 2026-05-08 23:33 | -16.84394 | 145.45295 | 8580 ft | 241 kts | 31° |
| 2026-05-08 23:33 | -16.82963 | 145.46117 | 8468 ft | 228 kts | 32° |
| 2026-05-08 23:33 | -16.81608 | 145.46893 | 8340 ft | 216 kts | 32° |
| 2026-05-08 23:33 | -16.80320 | 145.47628 | 8217 ft | 205 kts | 32° |
| 2026-05-08 23:34 | -16.79113 | 145.48315 | 8125 ft | 191 kts | 32° |
| 2026-05-08 23:34 | -16.77984 | 145.48959 | 7939 ft | 183 kts | 33° |
| 2026-05-08 23:34 | -16.76864 | 145.49599 | 7563 ft | 186 kts | 33° |
| 2026-05-08 23:34 | -16.75727 | 145.50246 | 7345 ft | 184 kts | 33° |
| 2026-05-08 23:35 | -16.74603 | 145.50885 | 7095 ft | 184 kts | 33° |
| 2026-05-08 23:35 | -16.73485 | 145.51520 | 6822 ft | 182 kts | 33° |
| 2026-05-08 23:35 | -16.72368 | 145.52153 | 6529 ft | 182 kts | 33° |
| 2026-05-08 23:35 | -16.71253 | 145.52785 | 6211 ft | 182 kts | 34° |
| 2026-05-08 23:36 | -16.70137 | 145.53419 | 5845 ft | 183 kts | 35° |
| 2026-05-08 23:36 | -16.69089 | 145.54144 | 5514 ft | 178 kts | 45° |
| 2026-05-08 23:36 | -16.68475 | 145.54687 | 5416 ft | 171 kts | 49° |
| 2026-05-08 23:36 | -16.67618 | 145.55575 | 5165 ft | 174 kts | 52° |
| 2026-05-08 23:37 | -16.66546 | 145.56769 | 5026 ft | 169 kts | 54° |
| 2026-05-08 23:37 | -16.66025 | 145.57389 | 4997 ft | 167 kts | 54° |
| 2026-05-08 23:37 | -16.65050 | 145.58617 | 4990 ft | 165 kts | 57° |
| 2026-05-08 23:37 | -16.64364 | 145.59574 | 4977 ft | 165 kts | 60° |
| 2026-05-08 23:38 | -16.63919 | 145.60256 | 4805 ft | 171 kts | 62° |
| 2026-05-08 23:38 | -16.63541 | 145.61372 | 4676 ft | 160 kts | 91° |
| 2026-05-08 23:38 | -16.63756 | 145.62836 | 4711 ft | 149 kts | 111° |
| 2026-05-08 23:38 | -16.64129 | 145.63485 | 4632 ft | 162 kts | 133° |
| 2026-05-08 23:39 | -16.65104 | 145.64118 | 4481 ft | 173 kts | 143° |
| 2026-05-08 23:39 | -16.66135 | 145.64771 | 4271 ft | 170 kts | 143° |
| 2026-05-08 23:39 | -16.67142 | 145.65385 | 4061 ft | 165 kts | 146° |
| 2026-05-08 23:39 | -16.68147 | 145.65918 | 3840 ft | 159 kts | 148° |
| 2026-05-08 23:40 | -16.69126 | 145.66393 | 3643 ft | 153 kts | 149° |
| 2026-05-08 23:40 | -16.70091 | 145.66846 | 3454 ft | 149 kts | 150° |
| 2026-05-08 23:40 | -16.71011 | 145.67267 | 3253 ft | 139 kts | 150° |
| 2026-05-08 23:40 | -16.71880 | 145.67666 | 3088 ft | 140 kts | 150° |
| 2026-05-08 23:41 | -16.72770 | 145.68071 | 2905 ft | 133 kts | 152° |
| 2026-05-08 23:41 | -16.73607 | 145.68446 | 2729 ft | 127 kts | 152° |
| 2026-05-08 23:41 | -16.74370 | 145.68796 | 2586 ft | 114 kts | 152° |
| 2026-05-08 23:41 | -16.75083 | 145.69124 | 2432 ft | 113 kts | 153° |
| 2026-05-08 23:42 | -16.75817 | 145.69459 | 2277 ft | 116 kts | 154° |
| 2026-05-08 23:42 | -16.76559 | 145.69797 | 2119 ft | 118 kts | 153° |
| 2026-05-08 23:42 | -16.77319 | 145.70143 | 1964 ft | 119 kts | 154° |
| 2026-05-08 23:42 | -16.78065 | 145.70481 | 1811 ft | 114 kts | 154° |
| 2026-05-08 23:43 | -16.78782 | 145.70808 | 1663 ft | 111 kts | 154° |
| 2026-05-08 23:43 | -16.79490 | 145.71130 | 1506 ft | 111 kts | 154° |
| 2026-05-08 23:43 | -16.80215 | 145.71461 | 1373 ft | 119 kts | 155° |
| 2026-05-08 23:43 | -16.80987 | 145.71812 | 1202 ft | 121 kts | 155° |
| 2026-05-08 23:44 | -16.81743 | 145.72154 | 1053 ft | 116 kts | 154° |
| 2026-05-08 23:44 | -16.82460 | 145.72482 | 902 ft | 109 kts | 156° |
| 2026-05-08 23:44 | -16.83154 | 145.72797 | 771 ft | 110 kts | 155° |
| 2026-05-08 23:44 | -16.83868 | 145.73124 | 629 ft | 111 kts | 157° |
| 2026-05-08 23:45 | -16.84564 | 145.73441 | 449 ft | 110 kts | 155° |
| 2026-05-08 23:45 | -16.85253 | 145.73741 | 355 ft | 104 kts | 151° |
| 2026-05-08 23:45 | -16.85899 | 145.74041 | 206 ft | 101 kts | 151° |
| 2026-05-08 23:45 | -16.86548 | 145.74341 | 60 ft | 102 kts | 153° |
| 2026-05-08 23:46 | -16.87164 | 145.74620 | 14 ft | 82 kts | 157° |
| 2026-05-08 23:46 | -16.87561 | 145.74798 | 18 ft | 44 kts | 157° |
| 2026-05-08 23:46 | -16.87776 | 145.74893 | 17 ft | 31 kts | 156° |
| 2026-05-08 23:46 | -16.87940 | 145.74967 | 17 ft | 24 kts | 156° |
| 2026-05-08 23:47 | -16.88088 | 145.75036 | 16 ft | 23 kts | 156° |
| 2026-05-08 23:47 | -16.88223 | 145.75098 | 17 ft | 18 kts | 156° |
| 2026-05-08 23:47 | -16.88325 | 145.75146 | 17 ft | 14 kts | 150° |
| 2026-05-08 23:47 | -16.88355 | 145.75224 | 17 ft | 11 kts | 72° |
| 2026-05-08 23:48 | -16.88321 | 145.75296 | 16 ft | 11 kts | 53° |
| 2026-05-08 23:48 | -16.88252 | 145.75299 | 16 ft | 11 kts | 336° |
| 2026-05-08 23:48 | -16.88185 | 145.75269 | 16 ft | 10 kts | 336° |
| 2026-05-08 23:48 | -16.88117 | 145.75239 | 15 ft | 11 kts | 338° |
| 2026-05-08 23:49 | -16.88038 | 145.75204 | 15 ft | 13 kts | 336° |
| 2026-05-08 23:49 | -16.87961 | 145.75169 | 15 ft | 11 kts | 336° |
| 2026-05-08 23:49 | -16.87901 | 145.75188 | 15 ft | 9 kts | 56° |
| 2026-05-08 23:49 | -16.87848 | 145.75221 | 15 ft | 9 kts | 0° |
| 2026-05-08 23:50 | -16.87799 | 145.75197 | 15 ft | 7 kts | 329° |
| 2026-05-08 23:50 | -16.87754 | 145.75174 | 15 ft | 7 kts | 337° |
| 2026-05-08 23:50 | -16.87709 | 145.75156 | 16 ft | 7 kts | 338° |
| 2026-05-08 23:50 | -16.87665 | 145.75143 | 15 ft | 6 kts | 5° |
| 2026-05-08 23:51 | -16.87647 | 145.75158 | 15 ft | 3 kts | 65° |
| 2026-05-08 23:51 | -16.87638 | 145.75178 | 15 ft | 3 kts | 65° |
| 2026-05-08 23:51 | -16.87627 | 145.75203 | 15 ft | 5 kts | 66° |
| 2026-05-08 23:51 | -16.87619 | 145.75223 | 18 ft | 2 kts | 66° |
| 2026-05-08 23:52 | -16.87618 | 145.75225 | 17 ft | 0 kts | 66° |